Time;durP1;ratioP1;P1;durP2;ratioP2;P2;SDS_P1;SDS_P2;PMS_P1;PMS_P2;Temp;Humidity;BMP_temperature;BMP_pressure;BME280_temperature;BME280_humidity;BME280_pressure;Samples;Min_cycle;Max_cycle;Signal;HPM_P1;HPM_P2
2022/11/20 00:01:25;;;;;;;36.88;17.38;;;1.00;99.90;;;;;;4997619;28;20065;-71
2022/11/20 00:03:52;;;;;;;33.22;17.27;;;1.00;99.90;;;;;;4980381;28;20035;-72
2022/11/20 00:06:19;;;;;;;34.13;16.85;;;1.00;99.90;;;;;;4979984;28;20055;-72
2022/11/20 00:08:46;;;;;;;32.92;16.15;;;1.00;99.90;;;;;;4980396;28;20106;-71
2022/11/20 00:11:13;;;;;;;38.78;17.48;;;1.00;99.90;;;;;;4979671;28;20037;-71
2022/11/20 00:13:39;;;;;;;35.47;16.25;;;0.90;99.90;;;;;;4997113;28;20037;-71
2022/11/20 00:16:07;;;;;;;40.03;18.73;;;0.90;99.90;;;;;;4979999;28;20033;-72
2022/11/20 00:18:34;;;;;;;38.15;18.67;;;0.90;99.90;;;;;;4979689;28;20088;-71
2022/11/20 00:21:03;;;;;;;37.70;17.67;;;0.90;99.90;;;;;;4997698;28;20077;-71
2022/11/20 00:23:29;;;;;;;39.83;18.58;;;0.90;99.90;;;;;;4997607;28;20069;-72
2022/11/20 00:25:55;;;;;;;38.17;18.38;;;0.90;99.90;;;;;;4997870;28;20033;-71
2022/11/20 00:28:20;;;;;;;38.08;16.90;;;0.90;99.90;;;;;;4980310;28;20037;-71
2022/11/20 00:30:46;;;;;;;37.67;18.88;;;0.90;99.90;;;;;;4980332;28;20512;-72
2022/11/20 00:33:12;;;;;;;37.35;18.05;;;1.00;99.90;;;;;;4998708;28;20031;-72
2022/11/20 00:35:37;;;;;;;34.88;17.92;;;1.00;99.90;;;;;;4998154;28;20030;-72
2022/11/20 00:38:03;;;;;;;35.67;17.10;;;1.10;99.90;;;;;;4980034;28;20534;-72
2022/11/20 00:40:29;;;;;;;36.92;17.83;;;1.00;99.90;;;;;;4980188;28;20040;-72
2022/11/20 00:42:54;;;;;;;38.65;18.58;;;1.00;99.90;;;;;;4980263;28;20026;-72
2022/11/20 00:45:20;;;;;;;34.92;17.48;;;1.10;99.90;;;;;;4997809;28;20022;-72
2022/11/20 00:47:46;;;;;;;35.55;16.55;;;1.00;99.90;;;;;;4997994;28;20061;-71
2022/11/20 00:50:11;;;;;;;35.72;18.10;;;1.00;99.90;;;;;;4997857;28;20027;-72
2022/11/20 00:52:37;;;;;;;38.70;18.35;;;1.00;99.90;;;;;;5000476;28;20024;-72
2022/11/20 00:55:04;;;;;;;36.15;18.88;;;1.20;99.90;;;;;;4997492;28;20525;-71
2022/11/20 00:57:29;;;;;;;38.28;17.65;;;1.00;99.90;;;;;;4979967;28;20034;-72
2022/11/20 00:59:55;;;;;;;38.83;17.60;;;0.90;99.90;;;;;;4997398;28;20037;-72
2022/11/20 01:02:21;;;;;;;40.78;17.48;;;0.90;99.90;;;;;;4979980;28;20023;-72
2022/11/20 01:04:46;;;;;;;38.70;18.67;;;1.00;99.90;;;;;;4980869;28;20030;-72
2022/11/20 01:07:12;;;;;;;39.83;17.27;;;0.90;99.90;;;;;;4979677;28;20136;-72
2022/11/20 01:09:38;;;;;;;44.38;18.42;;;0.80;99.90;;;;;;4979989;28;20487;-72
2022/11/20 01:12:04;;;;;;;38.22;17.52;;;0.80;99.90;;;;;;4979779;28;20027;-72
2022/11/20 01:14:29;;;;;;;41.83;18.23;;;0.80;99.90;;;;;;4979685;28;20113;-71
2022/11/20 01:16:55;;;;;;;38.08;17.75;;;0.80;99.90;;;;;;4980760;28;20030;-72
2022/11/20 01:19:23;;;;;;;39.70;18.33;;;0.90;99.90;;;;;;4984492;28;20065;-73
2022/11/20 01:21:50;;;;;;;37.70;17.70;;;0.90;99.90;;;;;;5002775;28;20026;-72
2022/11/20 01:24:18;;;;;;;38.78;19.20;;;0.80;99.90;;;;;;4985361;28;20026;-72
2022/11/20 01:26:46;;;;;;;39.83;18.40;;;0.80;99.90;;;;;;5002389;28;20379;-72
2022/11/20 01:29:21;;;;;;;38.72;18.10;;;0.80;99.90;;;;;;5000002;28;20026;-73
2022/11/20 01:31:47;;;;;;;41.88;19.05;;;0.90;99.90;;;;;;4999524;28;20105;-72
2022/11/20 01:34:15;;;;;;;37.50;18.25;;;0.90;99.90;;;;;;4998837;28;20072;-72
2022/11/20 01:36:42;;;;;;;37.80;17.98;;;0.90;99.90;;;;;;4981655;28;20437;-72
2022/11/20 01:39:15;;;;;;;37.53;18.60;;;0.90;99.90;;;;;;4980919;28;20030;-72
2022/11/20 01:44:47;;;;;;;37.63;18.10;;;0.90;99.90;;;;;;4997007;28;20125;-72
2022/11/20 01:47:17;;;;;;;37.45;16.38;;;0.90;99.90;;;;;;4979854;28;20037;-72
2022/11/20 01:49:55;;;;;;;37.83;18.17;;;0.80;99.90;;;;;;4979772;28;20485;-72
2022/11/20 01:52:25;;;;;;;39.83;18.40;;;0.80;99.90;;;;;;4981056;28;20116;-72
2022/11/20 01:54:58;;;;;;;38.20;19.10;;;0.90;99.90;;;;;;4981003;28;20124;-72
2022/11/20 01:57:27;;;;;;;36.72;18.50;;;0.90;99.90;;;;;;4980374;28;20030;-72
2022/11/20 02:00:01;;;;;;;37.10;19.25;;;0.90;99.90;;;;;;4980304;28;20080;-72
2022/11/20 02:02:27;;;;;;;36.78;18.10;;;0.90;99.90;;;;;;4980237;28;20031;-73
2022/11/20 02:04:56;;;;;;;40.35;18.80;;;1.10;99.90;;;;;;4997316;28;20097;-73
2022/11/20 02:07:23;;;;;;;42.58;19.70;;;1.90;99.90;;;;;;4980407;28;20046;-73
2022/11/20 02:09:50;;;;;;;38.58;19.10;;;1.00;99.90;;;;;;4997817;28;20069;-72
2022/11/20 02:15:17;;;;;;;41.10;18.75;;;0.90;99.90;;;;;;4936244;29;20032;-72
2022/11/20 02:17:42;;;;;;;39.85;18.25;;;1.00;99.90;;;;;;4970038;28;20490;-73
2022/11/20 02:20:09;;;;;;;39.88;18.73;;;1.30;99.90;;;;;;4978968;28;20034;-72
2022/11/20 02:22:43;;;;;;;39.75;19.50;;;0.90;99.90;;;;;;4979769;28;20493;-72
2022/11/20 02:25:10;;;;;;;38.25;19.45;;;1.20;99.90;;;;;;4996997;28;20027;-73
2022/11/20 02:27:36;;;;;;;43.78;20.05;;;0.90;99.90;;;;;;4997175;28;20030;-72
2022/11/20 02:30:10;;;;;;;37.90;18.48;;;1.20;99.90;;;;;;4996823;28;20034;-73
2022/11/20 02:32:36;;;;;;;40.65;18.40;;;1.80;99.90;;;;;;4980313;28;20172;-73
2022/11/20 02:35:18;;;;;;;39.30;17.95;;;1.00;99.90;;;;;;4979669;28;20422;-72
2022/11/20 02:37:47;;;;;;;42.63;18.25;;;1.00;99.90;;;;;;4996494;28;20031;-72
2022/11/20 02:40:13;;;;;;;39.05;18.40;;;1.00;99.90;;;;;;4979360;28;20133;-72
2022/11/20 02:42:39;;;;;;;37.05;17.77;;;1.00;99.90;;;;;;4979766;28;20451;-72
2022/11/20 02:45:05;;;;;;;47.10;19.23;;;1.00;99.90;;;;;;4997774;28;20030;-72
2022/11/20 02:47:31;;;;;;;37.25;18.13;;;1.00;99.90;;;;;;4979247;28;20080;-72
2022/11/20 02:49:57;;;;;;;39.42;19.50;;;1.10;99.90;;;;;;4980314;28;20022;-72
2022/11/20 02:52:23;;;;;;;37.63;17.73;;;1.10;99.90;;;;;;4979610;28;20032;-73
2022/11/20 02:54:49;;;;;;;35.90;17.45;;;1.10;99.90;;;;;;4997271;28;20038;-73
2022/11/20 02:57:14;;;;;;;39.10;19.45;;;1.30;99.90;;;;;;4978980;28;20029;-73
2022/11/20 02:59:40;;;;;;;42.33;19.70;;;1.00;99.90;;;;;;4995641;28;20023;-72
2022/11/20 03:02:06;;;;;;;42.63;20.63;;;1.00;99.90;;;;;;4995408;28;20029;-73
2022/11/20 03:04:31;;;;;;;42.38;20.00;;;1.00;99.90;;;;;;4996717;28;20058;-72
2022/11/20 03:06:57;;;;;;;43.53;19.73;;;1.00;99.90;;;;;;5000771;28;20061;-73
2022/11/20 03:09:23;;;;;;;41.47;19.38;;;1.20;99.90;;;;;;4983871;28;20027;-72
2022/11/20 03:11:48;;;;;;;38.25;18.92;;;1.00;99.90;;;;;;4983618;28;20034;-72
2022/11/20 03:14:14;;;;;;;40.60;19.45;;;1.00;99.90;;;;;;4983272;28;20386;-73
2022/11/20 03:16:40;;;;;;;40.45;20.05;;;1.00;99.90;;;;;;4982448;28;20373;-72
2022/11/20 03:19:06;;;;;;;42.22;19.33;;;1.00;99.90;;;;;;4980822;28;20077;-73
2022/11/20 03:21:33;;;;;;;41.33;19.25;;;1.00;99.90;;;;;;4980889;28;20030;-72
2022/11/20 03:23:59;;;;;;;41.00;20.38;;;1.60;99.90;;;;;;4980805;28;20483;-72
2022/11/20 03:26:26;;;;;;;40.95;19.73;;;1.00;99.90;;;;;;4997988;28;20054;-72
2022/11/20 03:28:53;;;;;;;41.13;19.95;;;1.00;99.90;;;;;;4997538;28;20489;-72
2022/11/20 03:31:22;;;;;;;42.20;18.88;;;1.00;99.90;;;;;;4999936;28;20034;-72
2022/11/20 03:33:47;;;;;;;39.92;20.25;;;1.00;99.90;;;;;;5001049;28;20046;-72
2022/11/20 03:36:16;;;;;;;42.78;20.55;;;1.10;99.90;;;;;;4983810;28;20038;-72
2022/11/20 03:38:42;;;;;;;39.80;20.03;;;1.10;99.90;;;;;;4983524;28;20529;-72
2022/11/20 03:41:19;;;;;;;41.90;19.80;;;1.20;99.90;;;;;;5000596;28;20109;-72
2022/11/20 03:43:55;;;;;;;45.50;19.88;;;1.00;99.90;;;;;;4999575;28;20030;-72
2022/11/20 03:46:21;;;;;;;41.33;19.33;;;1.00;99.90;;;;;;4982309;28;20077;-72
2022/11/20 03:48:47;;;;;;;44.35;21.13;;;1.10;99.90;;;;;;4984259;28;20030;-72
2022/11/20 03:51:15;;;;;;;42.90;21.58;;;1.10;99.90;;;;;;4983122;28;20061;-72
2022/11/20 03:53:43;;;;;;;46.25;21.65;;;1.10;99.90;;;;;;4982978;28;20364;-72
2022/11/20 03:56:10;;;;;;;40.90;18.73;;;1.20;99.90;;;;;;5000860;28;20031;-73
2022/11/20 03:58:39;;;;;;;41.67;19.90;;;1.20;99.90;;;;;;5000619;28;20031;-72
2022/11/20 04:01:13;;;;;;;44.15;19.65;;;1.20;99.90;;;;;;5001444;28;20117;-73
2022/11/20 04:03:40;;;;;;;41.55;19.88;;;1.20;99.90;;;;;;5001772;28;20029;-73
2022/11/20 04:06:16;;;;;;;44.30;20.33;;;1.20;99.90;;;;;;4980742;28;20186;-73
2022/11/20 04:08:42;;;;;;;42.20;19.70;;;1.20;99.90;;;;;;4964980;28;20034;-72
2022/11/20 04:11:22;;;;;;;42.70;18.90;;;1.20;99.90;;;;;;4982153;28;20050;-72
2022/11/20 04:13:53;;;;;;;43.92;19.75;;;1.30;99.90;;;;;;4982349;28;20027;-72
2022/11/20 04:16:19;;;;;;;43.05;21.10;;;1.30;99.90;;;;;;4964025;28;20391;-72
2022/11/20 04:18:45;;;;;;;44.47;21.23;;;1.30;99.90;;;;;;4980399;28;20041;-72
2022/11/20 04:21:11;;;;;;;41.67;19.17;;;1.20;99.90;;;;;;4962882;28;20026;-72
2022/11/20 04:23:37;;;;;;;42.10;20.50;;;1.20;99.90;;;;;;4962615;28;20054;-72
2022/11/20 04:26:08;;;;;;;46.50;21.85;;;1.50;99.90;;;;;;4962978;28;20023;-72
2022/11/20 04:28:34;;;;;;;42.72;19.58;;;1.20;99.90;;;;;;4977981;28;20486;-72
2022/11/20 04:31:15;;;;;;;44.17;20.92;;;1.20;99.90;;;;;;4961910;28;20031;-72
2022/11/20 04:33:41;;;;;;;40.88;19.80;;;1.20;99.90;;;;;;4979613;28;20073;-71
2022/11/20 04:36:16;;;;;;;43.97;20.70;;;1.10;99.90;;;;;;4979475;28;20035;-71
2022/11/20 04:38:43;;;;;;;41.65;20.33;;;1.20;99.90;;;;;;4978119;28;20034;-71
2022/11/20 04:41:18;;;;;;;41.75;19.95;;;1.20;99.90;;;;;;4978944;28;20038;-71
2022/11/20 04:43:48;;;;;;;43.15;20.52;;;1.20;99.90;;;;;;4961848;28;20027;-72
2022/11/20 04:46:14;;;;;;;40.65;20.05;;;1.20;99.90;;;;;;4978777;28;20407;-72
2022/11/20 04:48:40;;;;;;;42.13;21.40;;;1.20;99.90;;;;;;4961951;28;20047;-72
2022/11/20 04:51:06;;;;;;;44.65;20.48;;;1.20;99.90;;;;;;4978029;28;20464;-72
2022/11/20 04:53:32;;;;;;;45.17;20.08;;;1.10;99.90;;;;;;4978868;28;20027;-72
2022/11/20 04:56:06;;;;;;;47.60;20.77;;;1.20;99.90;;;;;;4979547;28;20032;-71
2022/11/20 04:58:33;;;;;;;42.65;19.33;;;1.10;99.90;;;;;;4961338;28;20030;-72
2022/11/20 05:01:03;;;;;;;43.60;20.83;;;1.10;99.90;;;;;;4961642;28;20037;-72
2022/11/20 05:03:29;;;;;;;46.58;20.88;;;1.20;99.90;;;;;;4978647;28;20166;-72
2022/11/20 05:05:55;;;;;;;46.90;20.75;;;1.20;99.90;;;;;;4977381;28;20463;-73
2022/11/20 05:08:20;;;;;;;41.30;20.95;;;1.20;99.90;;;;;;4978089;28;20031;-73
2022/11/20 05:10:46;;;;;;;46.28;21.33;;;1.20;99.90;;;;;;4977538;28;20033;-73
2022/11/20 05:13:11;;;;;;;45.70;21.27;;;1.50;99.90;;;;;;4978006;28;20034;-72
2022/11/20 05:15:37;;;;;;;41.83;19.95;;;1.20;99.90;;;;;;4961691;28;20464;-73
2022/11/20 05:18:03;;;;;;;46.55;21.55;;;1.40;99.90;;;;;;4978566;28;20086;-72
2022/11/20 05:20:29;;;;;;;42.60;20.92;;;1.30;99.90;;;;;;4961578;28;20078;-72
2022/11/20 05:22:57;;;;;;;46.63;20.58;;;1.30;99.90;;;;;;4978719;28;20114;-72
2022/11/20 05:25:23;;;;;;;43.33;20.60;;;1.30;99.90;;;;;;4978282;28;20033;-72
2022/11/20 05:27:48;;;;;;;48.00;21.25;;;1.30;99.90;;;;;;4978192;28;20491;-72
2022/11/20 05:30:14;;;;;;;42.38;21.80;;;1.30;99.90;;;;;;4961009;28;20027;-72
2022/11/20 05:32:40;;;;;;;41.55;20.52;;;1.30;99.90;;;;;;4961436;28;20030;-73
2022/11/20 05:35:06;;;;;;;46.55;20.42;;;1.30;99.90;;;;;;4962432;28;20031;-73
2022/11/20 05:37:32;;;;;;;44.67;20.90;;;1.30;99.90;;;;;;4965165;28;20046;-73
2022/11/20 05:39:57;;;;;;;45.08;20.88;;;1.30;99.90;;;;;;4964662;28;20031;-73
2022/11/20 05:42:32;;;;;;;43.60;20.45;;;1.20;99.90;;;;;;4982018;28;20051;-73
2022/11/20 05:45:03;;;;;;;44.83;20.05;;;1.90;99.90;;;;;;4980201;28;20034;-73
2022/11/20 05:47:32;;;;;;;46.72;21.23;;;1.20;99.90;;;;;;4964105;28;20142;-73
2022/11/20 05:49:58;;;;;;;42.33;20.25;;;1.20;99.90;;;;;;4980554;28;20106;-73
2022/11/20 05:52:23;;;;;;;48.67;21.50;;;1.10;99.90;;;;;;4979473;28;20047;-73
2022/11/20 05:54:49;;;;;;;46.22;22.17;;;1.20;99.90;;;;;;4961898;28;20030;-73
2022/11/20 05:57:15;;;;;;;45.20;21.63;;;1.20;99.90;;;;;;4962642;28;20378;-73
2022/11/20 05:59:41;;;;;;;48.60;21.88;;;1.30;99.90;;;;;;4979997;28;20066;-72
2022/11/20 06:02:07;;;;;;;53.47;22.77;;;1.20;99.90;;;;;;4980506;28;20022;-74
2022/11/20 06:04:32;;;;;;;54.88;21.85;;;2.60;99.90;;;;;;4962900;28;20098;-72
2022/11/20 06:06:58;;;;;;;51.38;22.33;;;1.30;99.90;;;;;;4996399;28;20047;-73
2022/11/20 06:09:23;;;;;;;52.42;22.13;;;1.20;99.90;;;;;;4982141;28;20034;-73
2022/11/20 06:11:49;;;;;;;54.13;22.70;;;1.30;99.90;;;;;;4999997;28;20034;-74
2022/11/20 06:14:15;;;;;;;52.58;22.85;;;1.40;99.90;;;;;;4999513;28;20026;-74
2022/11/20 06:16:40;;;;;;;53.28;22.77;;;1.60;99.90;;;;;;4980258;28;20065;-72
2022/11/20 06:19:06;;;;;;;54.72;22.80;;;1.20;99.90;;;;;;4979593;28;20061;-72
2022/11/20 06:21:32;;;;;;;51.80;22.02;;;1.10;99.90;;;;;;4996872;28;20077;-72
2022/11/20 06:23:57;;;;;;;51.88;23.05;;;1.10;99.90;;;;;;4995786;28;20105;-76
2022/11/20 06:26:25;;;;;;;54.92;23.30;;;1.90;99.90;;;;;;4994840;28;20057;-74
2022/11/20 06:28:51;;;;;;;54.25;23.52;;;1.20;99.90;;;;;;4977543;28;20034;-74
2022/11/20 06:31:20;;;;;;;50.55;22.35;;;0.80;99.90;;;;;;4977735;28;20030;-74
2022/11/20 06:33:46;;;;;;;56.65;22.08;;;0.80;99.90;;;;;;4994694;28;20029;-75
2022/11/20 06:36:14;;;;;;;48.25;21.80;;;1.00;99.90;;;;;;4995017;28;20026;-74
2022/11/20 06:38:41;;;;;;;60.80;23.10;;;0.70;99.90;;;;;;4977543;28;20069;-74
2022/11/20 06:41:10;;;;;;;47.13;21.75;;;0.70;99.90;;;;;;4977799;28;20265;-74
2022/11/20 06:43:36;;;;;;;57.35;22.75;;;0.80;99.90;;;;;;4977871;28;20029;-74
2022/11/20 06:46:01;;;;;;;57.28;22.15;;;0.70;99.90;;;;;;4978224;28;20027;-75
2022/11/20 06:48:28;;;;;;;54.85;22.42;;;0.80;99.90;;;;;;4995172;28;20034;-73
2022/11/20 06:50:54;;;;;;;53.90;23.08;;;0.80;99.90;;;;;;4995053;28;20471;-75
2022/11/20 06:53:19;;;;;;;56.47;23.85;;;0.70;99.90;;;;;;4995365;28;20035;-74
2022/11/20 06:55:47;;;;;;;49.42;21.83;;;1.10;99.90;;;;;;4978991;28;20433;-74
2022/11/20 06:58:14;;;;;;;50.15;24.60;;;0.80;99.90;;;;;;4978727;28;20041;-75
2022/11/20 07:00:39;;;;;;;52.40;24.35;;;0.90;99.90;;;;;;4996364;28;20129;-77
2022/11/20 07:03:07;;;;;;;61.67;24.50;;;1.10;99.90;;;;;;4996087;28;20474;-74
2022/11/20 07:06:27;;;;;;;56.20;26.10;;;0.90;99.90;;;;;;4979409;28;20054;-77
2022/11/20 07:08:53;;;;;;;55.95;23.10;;;0.90;99.90;;;;;;4985907;28;20037;-77
2022/11/20 07:11:19;;;;;;;57.63;24.67;;;;;;;;;;5127062;23;20120;-77
2022/11/20 07:13:44;;;;;;;62.83;25.33;;;0.90;99.90;;;;;;5068138;28;20048;-79
2022/11/20 07:16:10;;;;;;;61.20;24.15;;;0.90;99.90;;;;;;5071901;28;20024;-79
2022/11/20 07:32:36;;;;;;;59.05;24.05;;;1.00;99.90;;;;;;5067499;28;20112;-76
2022/11/20 07:35:56;;;;;;;50.83;23.33;;;1.00;99.90;;;;;;5045261;28;20114;-72
2022/11/20 07:38:22;;;;;;;53.75;23.77;;;1.00;99.90;;;;;;5073322;28;20040;-80
2022/11/20 07:40:48;;;;;;;52.55;22.98;;;1.10;99.90;;;;;;5064007;28;20032;-77
2022/11/20 07:43:14;;;;;;;56.60;25.45;;;1.10;99.90;;;;;;5062112;28;20144;-78
2022/11/20 07:45:41;;;;;;;52.10;22.65;;;1.20;99.90;;;;;;5043479;28;20067;-77
2022/11/20 07:51:41;;;;;;;52.22;22.40;;;1.20;99.90;;;;;;5063079;28;20024;-79
2022/11/20 08:00:55;;;;;;;57.58;24.60;;;1.20;99.90;;;;;;5061520;28;20115;-77
2022/11/20 08:03:55;;;;;;;52.50;22.90;;;1.20;99.90;;;;;;5044085;28;20064;-76
2022/11/20 08:06:20;;;;;;;52.05;23.50;;;1.30;99.90;;;;;;5063501;28;20075;-78
2022/11/20 08:08:46;;;;;;;60.53;24.90;;;1.40;99.90;;;;;;5045981;28;20028;-77
2022/11/20 08:14:17;;;;;;;50.42;23.88;;;1.50;99.90;;;;;;5063466;28;20040;-78
2022/11/20 08:16:45;;;;;;;50.40;24.20;;;1.60;99.90;;;;;;5046404;28;20033;-68
2022/11/20 08:24:21;;;;;;;55.58;23.40;;;1.80;99.90;;;;;;5767483;22;20065;-66
2022/11/20 08:26:47;;;;;;;51.63;22.92;;;1.90;99.90;;;;;;5043413;28;20029;-70
2022/11/20 08:29:13;;;;;;;50.35;22.73;;;2.00;99.90;;;;;;5022083;28;20045;-72
2022/11/20 08:31:38;;;;;;;51.25;23.50;;;2.10;99.90;;;;;;5040794;28;20029;-71
2022/11/20 08:34:04;;;;;;;51.58;23.40;;;2.00;99.90;;;;;;5022846;28;20045;-69
2022/11/20 08:36:33;;;;;;;48.70;23.67;;;1.90;99.90;;;;;;5039856;28;20100;-71
2022/11/20 08:38:59;;;;;;;48.92;21.95;;;1.90;99.90;;;;;;5040054;28;20409;-67
2022/11/20 08:41:28;;;;;;;50.40;23.30;;;1.90;99.90;;;;;;5037179;28;20033;-64
2022/11/20 08:43:59;;;;;;;50.53;23.15;;;1.80;99.90;;;;;;5037636;28;20038;-64
2022/11/20 08:46:27;;;;;;;54.63;25.10;;;1.70;99.90;;;;;;5037523;28;20029;-62
2022/11/20 08:48:52;;;;;;;55.90;26.23;;;1.70;99.90;;;;;;5037446;28;20037;-64
2022/11/20 08:51:19;;;;;;;52.38;22.42;;;1.70;99.90;;;;;;5019082;28;20025;-62
2022/11/20 08:53:46;;;;;;;56.60;23.50;;;1.70;99.90;;;;;;5036082;28;20030;-63
2022/11/20 08:56:13;;;;;;;54.50;24.85;;;1.70;99.90;;;;;;5035973;28;20025;-62
2022/11/20 08:58:59;;;;;;;53.67;23.20;;;1.70;99.90;;;;;;5040729;28;20191;-72
2022/11/20 09:02:19;;;;;;;52.58;23.55;;;1.70;99.90;;;;;;5042518;28;20025;-72
2022/11/20 09:12:03;;;;;;;49.63;23.63;;;2.00;99.90;;;;;;5041629;28;20064;-73
2022/11/20 09:18:00;;;;;;;47.42;22.17;;;2.00;99.90;;;;;;5042064;28;20056;-73
2022/11/20 09:20:31;;;;;;;49.28;22.33;;;2.00;99.90;;;;;;5041971;28;20033;-72
2022/11/20 09:22:57;;;;;;;47.88;23.30;;;2.10;99.90;;;;;;5041577;28;20017;-70
2022/11/20 09:25:23;;;;;;;49.17;21.20;;;2.10;99.90;;;;;;5020089;28;20104;-68
2022/11/20 09:27:58;;;;;;;48.45;22.63;;;2.20;99.90;;;;;;5017944;28;20461;-68
2022/11/20 09:30:24;;;;;;;50.13;23.60;;;2.20;99.90;;;;;;5017727;28;20025;-69
2022/11/20 09:32:49;;;;;;;45.67;22.55;;;2.30;99.90;;;;;;5019368;28;20080;-68
2022/11/20 09:35:15;;;;;;;47.40;23.30;;;2.30;99.90;;;;;;5018806;28;20025;-68
2022/11/20 09:37:41;;;;;;;51.53;24.30;;;2.30;99.90;;;;;;5036128;28;20083;-72
2022/11/20 09:40:25;;;;;;;52.13;22.98;;;2.30;99.90;;;;;;5039177;28;20358;-71
2022/11/20 09:43:20;;;;;;;48.22;23.73;;;2.40;99.90;;;;;;5022539;28;20026;-71
2022/11/20 09:45:45;;;;;;;57.45;23.90;;;2.40;99.90;;;;;;5022681;28;20025;-72
2022/11/20 09:48:14;;;;;;;48.10;23.15;;;2.50;99.90;;;;;;5021687;28;20384;-71
2022/11/20 09:50:47;;;;;;;45.90;22.45;;;2.50;99.90;;;;;;5022855;28;20026;-72
2022/11/20 09:53:49;;;;;;;48.85;23.70;;;2.60;99.90;;;;;;5022225;28;20124;-71
2022/11/20 09:56:16;;;;;;;52.03;23.65;;;2.60;99.90;;;;;;5039924;28;20531;-71
2022/11/20 09:58:50;;;;;;;48.88;23.15;;;2.60;99.90;;;;;;5039556;28;20037;-72
2022/11/20 10:01:18;;;;;;;52.85;23.02;;;2.60;99.90;;;;;;5021501;28;20033;-72
2022/11/20 10:03:50;;;;;;;50.58;23.60;;;2.70;99.90;;;;;;5038921;28;20104;-71
2022/11/20 10:06:18;;;;;;;52.28;23.95;;;2.80;99.90;;;;;;5038938;28;20021;-71
2022/11/20 10:09:13;;;;;;;49.10;22.63;;;2.90;99.90;;;;;;5038169;28;20029;-71
2022/11/20 10:11:38;;;;;;;46.75;23.88;;;3.00;99.90;;;;;;5024788;28;20061;-72
2022/11/20 10:14:16;;;;;;;50.45;24.80;;;3.00;99.90;;;;;;5021113;28;20022;-71
2022/11/20 10:17:03;;;;;;;47.97;23.25;;;3.00;99.90;;;;;;5020185;28;20070;-72
2022/11/20 10:19:47;;;;;;;46.40;22.67;;;3.00;99.90;;;;;;5038272;28;20390;-70
2022/11/20 10:22:31;;;;;;;47.75;24.23;;;3.00;99.90;;;;;;5022154;28;20029;-72
2022/11/20 10:25:15;;;;;;;46.90;24.17;;;3.10;99.90;;;;;;5039568;28;20045;-70
2022/11/20 10:27:59;;;;;;;46.92;22.90;;;3.10;99.90;;;;;;5020575;28;20029;-70
2022/11/20 10:30:25;;;;;;;48.13;22.67;;;3.10;99.90;;;;;;5021002;28;20470;-71
2022/11/20 10:33:11;;;;;;;49.65;23.45;;;3.10;99.90;;;;;;5021061;28;20029;-70
2022/11/20 10:35:55;;;;;;;48.42;23.05;;;3.10;99.90;;;;;;5037286;28;20057;-70
2022/11/20 10:38:23;;;;;;;44.45;22.05;;;3.10;99.90;;;;;;5018344;28;20040;-69
2022/11/20 10:41:24;;;;;;;46.58;21.92;;;3.20;99.90;;;;;;5035249;28;20025;-69
2022/11/20 10:43:46;;;;;;;45.53;23.70;;;3.40;99.90;;;;;;5039326;28;20025;-71
2022/11/20 10:46:23;;;;;;;45.45;23.83;;;3.50;99.90;;;;;;5020289;28;20026;-71
2022/11/20 10:48:49;;;;;;;51.30;24.75;;;3.60;99.90;;;;;;5035476;28;20536;-70
2022/11/20 10:51:31;;;;;;;46.88;25.33;;;3.70;99.90;;;;;;5035120;28;20051;-71
2022/11/20 10:54:28;;;;;;;56.50;28.20;;;3.90;99.90;;;;;;5035894;28;20030;-71
2022/11/20 10:57:02;;;;;;;47.25;23.40;;;3.90;99.90;;;;;;5034913;28;20469;-70
2022/11/20 10:59:33;;;;;;;46.22;23.30;;;3.90;99.90;;;;;;5034871;28;20029;-70
2022/11/20 11:01:59;;;;;;;46.40;24.45;;;3.90;99.90;;;;;;5034530;28;20033;-70
2022/11/20 11:04:43;;;;;;;43.63;23.08;;;3.90;99.90;;;;;;5017714;28;20032;-70
2022/11/20 11:07:27;;;;;;;47.97;23.50;;;3.80;99.90;;;;;;5035083;28;20025;-70
2022/11/20 11:09:54;;;;;;;45.75;23.88;;;3.80;99.90;;;;;;5035113;28;20030;-71
2022/11/20 11:12:27;;;;;;;45.35;23.25;;;3.90;99.90;;;;;;5017091;28;20032;-70
2022/11/20 11:14:54;;;;;;;45.38;23.33;;;3.90;99.90;;;;;;5016833;28;20068;-70
2022/11/20 11:17:30;;;;;;;47.88;24.20;;;4.10;99.90;;;;;;5034563;28;20087;-70
2022/11/20 11:20:18;;;;;;;45.63;24.30;;;4.20;99.90;;;;;;5017394;28;20030;-70
2022/11/20 11:22:52;;;;;;;43.08;23.50;;;4.30;99.90;;;;;;5017101;28;20021;-59
2022/11/20 11:25:36;;;;;;;45.45;22.58;;;4.40;99.90;;;;;;5017329;28;20053;-70
2022/11/20 11:28:16;;;;;;;44.42;23.58;;;4.30;99.90;;;;;;5033887;28;20026;-70
2022/11/20 11:30:44;;;;;;;43.75;23.45;;;4.20;99.90;;;;;;5016456;28;20029;-71
2022/11/20 11:33:17;;;;;;;47.20;23.35;;;4.20;99.90;;;;;;5016325;28;20100;-71
2022/11/20 11:35:52;;;;;;;44.72;24.80;;;4.20;99.90;;;;;;5033908;28;20028;-70
2022/11/20 11:38:41;;;;;;;43.83;23.35;;;4.10;99.90;;;;;;5033778;28;20030;-71
2022/11/20 11:41:12;;;;;;;45.55;24.10;;;4.20;99.90;;;;;;5016238;28;20116;-71
2022/11/20 11:46:27;;;;;;;45.17;24.27;;;4.50;99.90;;;;;;5034087;28;20388;-70
2022/11/20 11:49:16;;;;;;;44.90;23.42;;;4.80;99.90;;;;;;5017419;28;20501;-70
2022/11/20 11:52:02;;;;;;;41.88;21.55;;;5.30;99.90;;;;;;5035747;28;20057;-70
2022/11/20 11:54:46;;;;;;;39.13;22.75;;;5.70;99.90;;;;;;5038524;28;20048;-70
2022/11/20 11:57:22;;;;;;;41.20;22.38;;;5.90;99.90;;;;;;5038942;28;20033;-69
2022/11/20 12:00:12;;;;;;;43.42;23.60;;;5.90;99.90;;;;;;5021218;28;20038;-71
2022/11/20 12:02:49;;;;;;;42.65;23.67;;;6.70;99.90;;;;;;5038292;28;20477;-70
2022/11/20 12:05:35;;;;;;;39.28;22.73;;;7.50;99.90;;;;;;5037204;28;20485;-70
2022/11/20 12:08:26;;;;;;;37.25;22.48;;;8.30;99.90;;;;;;5037127;28;20025;-71
2022/11/20 12:11:04;;;;;;;37.90;22.10;;;9.00;99.90;;;;;;5037513;28;20100;-70
2022/11/20 12:13:33;;;;;;;37.53;21.70;;;9.50;99.90;;;;;;5037933;28;20112;-74
2022/11/20 12:16:00;;;;;;;36.78;22.42;;;9.50;99.90;;;;;;5020830;28;20026;-76
2022/11/20 12:18:27;;;;;;;37.90;23.80;;;10.00;99.90;;;;;;5021610;28;20043;-74
2022/11/20 12:21:01;;;;;;;32.28;21.33;;;10.80;99.90;;;;;;5019207;28;20469;-74
2022/11/20 12:23:45;;;;;;;35.05;21.88;;;11.50;99.90;;;;;;5018771;28;20462;-74
2022/11/20 12:27:03;;;;;;;35.17;22.35;;;11.90;99.90;;;;;;5018482;28;20057;-73
2022/11/20 12:29:57;;;;;;;34.40;21.85;;;11.60;98.40;;;;;;5000396;28;20545;-74
2022/11/20 12:32:49;;;;;;;34.83;21.15;;;10.80;99.70;;;;;;5019547;28;20534;-77
2022/11/20 12:35:37;;;;;;;35.08;21.95;;;10.80;99.90;;;;;;5018288;28;20026;-74
2022/11/20 12:38:32;;;;;;;33.25;20.05;;;10.80;99.90;;;;;;5018234;28;20033;-75
2022/11/20 12:47:56;;;;;;;29.55;19.90;;;10.10;99.90;;;;;;5035660;28;20116;-74
2022/11/20 12:50:46;;;;;;;32.80;20.27;;;9.70;99.90;;;;;;5035764;28;20017;-74
2022/11/20 12:53:15;;;;;;;31.13;20.70;;;9.70;99.90;;;;;;5035777;28;20030;-75
2022/11/20 12:55:53;;;;;;;31.70;20.25;;;9.70;99.90;;;;;;5018153;28;20477;-74
2022/11/20 12:58:51;;;;;;;31.48;20.55;;;10.10;99.90;;;;;;5020098;28;20095;-75
2022/11/20 13:05:35;;;;;;;27.40;18.77;;;11.30;99.90;;;;;;5042143;28;20090;-75
2022/11/20 13:08:02;;;;;;;33.47;20.50;;;11.90;99.90;;;;;;5020440;28;20120;-75
2022/11/20 13:10:44;;;;;;;27.58;17.38;;;12.10;99.90;;;;;;5018705;28;20532;-74
2022/11/20 13:13:35;;;;;;;30.10;18.80;;;12.50;99.60;;;;;;5035648;28;20036;-74
2022/11/20 13:16:11;;;;;;;29.55;18.30;;;12.50;98.90;;;;;;5017671;28;20025;-75
2022/11/20 13:18:42;;;;;;;30.63;19.17;;;12.20;98.60;;;;;;5035755;28;20030;-74
2022/11/20 13:21:58;;;;;;;27.90;17.40;;;11.80;98.60;;;;;;5038811;28;20021;-74
2022/11/20 13:24:30;;;;;;;27.48;18.27;;;12.10;99.90;;;;;;5017309;28;20486;-74
2022/11/20 13:27:08;;;;;;;30.10;18.23;;;11.90;99.80;;;;;;5017589;28;20561;-74
2022/11/20 13:29:44;;;;;;;27.08;17.50;;;11.50;99.90;;;;;;5035238;28;20037;-74
2022/11/20 13:32:18;;;;;;;28.40;19.35;;;11.30;99.90;;;;;;5035448;28;20497;-74
2022/11/20 13:34:56;;;;;;;36.92;23.70;;;10.70;99.90;;;;;;5017553;28;20064;-73
2022/11/20 13:37:34;;;;;;;26.98;17.63;;;10.00;99.90;;;;;;5018309;28;20051;-74
2022/11/20 13:40:11;;;;;;;19.40;13.47;;;9.50;99.90;;;;;;5036289;28;20034;-74
2022/11/20 13:43:15;;;;;;;25.15;14.73;;;9.20;99.90;;;;;;5035572;28;20033;-73
2022/11/20 13:45:41;;;;;;;22.58;15.25;;;9.10;99.90;;;;;;4974948;28;20379;-73
2022/11/20 13:48:22;;;;;;;25.30;15.38;;;9.00;99.90;;;;;;5034624;28;20045;-74
2022/11/20 13:51:18;;;;;;;21.02;14.32;;;8.80;99.90;;;;;;5001504;28;20064;-73
2022/11/20 13:54:17;;;;;;;25.63;15.13;;;8.80;99.90;;;;;;5035220;28;20092;-73
2022/11/20 13:57:19;;;;;;;27.98;14.82;;;8.60;99.90;;;;;;5034580;28;20393;-74
2022/11/20 14:00:07;;;;;;;26.10;15.45;;;8.40;99.90;;;;;;5034841;28;20116;-73
2022/11/20 14:02:34;;;;;;;24.33;15.05;;;8.10;99.90;;;;;;5018293;28;20401;-74